createdAt,value
2019-04-07T00:01:45.831Z,5.60
2019-04-07T00:04:14.587Z,6.23
2019-04-07T00:06:42.970Z,6.67
2019-04-07T00:09:11.945Z,5.97
2019-04-07T00:11:40.423Z,6.30
2019-04-07T00:14:08.814Z,6.23
2019-04-07T00:16:37.357Z,6.60
2019-04-07T00:19:06.572Z,6.05
2019-04-07T00:21:35.271Z,6.40
2019-04-07T00:24:03.774Z,6.47
2019-04-07T00:26:32.162Z,5.90
2019-04-07T00:29:01.578Z,5.63
2019-04-07T00:31:30.173Z,5.60
2019-04-07T00:33:59.299Z,5.60
2019-04-07T00:36:27.897Z,5.40
2019-04-07T00:38:56.254Z,5.17
2019-04-07T00:41:24.846Z,5.70
2019-04-07T00:43:53.201Z,5.20
2019-04-07T00:46:21.852Z,5.40
2019-04-07T00:48:50.254Z,5.60
2019-04-07T00:51:18.789Z,5.23
2019-04-07T00:53:47.105Z,5.50
2019-04-07T00:56:15.819Z,5.30
2019-04-07T00:58:44.539Z,5.73
2019-04-07T01:01:15.175Z,5.10
2019-04-07T01:03:43.606Z,5.60
2019-04-07T01:06:12.001Z,4.90
2019-04-07T01:08:40.381Z,4.90
2019-04-07T01:11:08.881Z,4.80
2019-04-07T01:13:37.372Z,5.30
2019-04-07T01:16:05.696Z,5.17
2019-04-07T01:18:35.464Z,4.90
2019-04-07T01:21:03.883Z,4.87
2019-04-07T01:23:32.515Z,4.83
2019-04-07T01:26:00.983Z,4.57
2019-04-07T01:28:29.518Z,4.30
2019-04-07T01:30:59.070Z,4.90
2019-04-07T01:33:27.747Z,4.50
2019-04-07T01:35:56.410Z,4.53
2019-04-07T01:38:24.866Z,3.73
2019-04-07T01:40:55.363Z,4.80
2019-04-07T01:43:28.116Z,4.60
2019-04-07T01:46:07.018Z,5.00
2019-04-07T01:48:52.098Z,4.60
2019-04-07T01:51:31.303Z,4.60
2019-04-07T01:54:03.853Z,4.60
2019-04-07T01:56:33.870Z,4.63
2019-04-07T01:59:11.249Z,4.80
2019-04-07T02:01:41.729Z,4.90
2019-04-07T02:07:14.516Z,4.13
2019-04-07T02:09:59.810Z,4.37
2019-04-07T02:12:46.591Z,4.40
2019-04-07T02:15:19.194Z,4.50
2019-04-07T02:17:58.264Z,4.20
2019-04-07T02:20:40.018Z,4.10
2019-04-07T02:23:12.794Z,4.57
2019-04-07T02:25:44.097Z,4.33
2019-04-07T02:28:23.038Z,4.17
2019-04-07T02:31:08.108Z,4.20
2019-04-07T02:33:40.818Z,4.00
2019-04-07T02:36:18.193Z,4.53
2019-04-07T02:38:42.683Z,4.17
2019-04-07T02:41:12.704Z,4.03
2019-04-07T02:43:55.618Z,4.33
2019-04-07T02:46:38.220Z,4.50
2019-04-07T02:49:14.169Z,4.43
2019-04-07T02:51:56.359Z,4.37
2019-04-07T02:54:36.054Z,4.20
2019-04-07T02:57:24.357Z,4.50
2019-04-07T02:59:54.433Z,4.70
2019-04-07T03:02:41.166Z,4.60
2019-04-07T03:05:20.963Z,4.20
2019-04-07T03:07:53.729Z,4.07
2019-04-07T03:10:24.976Z,3.97
2019-04-07T03:13:07.395Z,4.33
2019-04-07T03:15:44.157Z,4.47
2019-04-07T03:18:27.098Z,4.33
2019-04-07T03:21:13.101Z,4.53
2019-04-07T03:23:46.152Z,3.97
2019-04-07T03:26:32.470Z,4.00
2019-04-07T03:29:05.740Z,4.27
2019-04-07T03:31:38.991Z,4.50
2019-04-07T03:34:12.389Z,4.30
2019-04-07T03:37:32.229Z,4.47
2019-04-07T03:39:34.561Z,4.93
2019-04-07T03:44:51.291Z,4.50
2019-04-07T03:47:22.262Z,4.77
2019-04-07T03:49:52.942Z,4.83
2019-04-07T03:52:26.692Z,4.50
2019-04-07T03:55:13.399Z,4.53
2019-04-07T03:57:50.667Z,4.70
2019-04-07T04:00:42.254Z,5.03
2019-04-07T04:03:12.880Z,5.77
2019-04-07T04:05:43.387Z,5.00
2019-04-07T04:08:16.047Z,5.37
2019-04-07T04:10:48.841Z,5.23
2019-04-07T04:13:27.842Z,5.70
2019-04-07T04:16:00.964Z,5.13
2019-04-07T04:18:29.328Z,5.50
2019-04-07T04:20:57.705Z,5.50
2019-04-07T04:23:26.149Z,5.57
2019-04-07T04:25:54.547Z,5.17
2019-04-07T04:28:23.692Z,5.43
2019-04-07T04:30:52.343Z,5.27
2019-04-07T04:33:20.753Z,6.00
2019-04-07T04:35:49.155Z,5.37
2019-04-07T04:38:17.809Z,6.20
2019-04-07T04:40:46.281Z,5.60
2019-04-07T04:43:15.558Z,6.23
2019-04-07T04:45:44.880Z,5.97
2019-04-07T04:48:13.393Z,5.77
2019-04-07T04:50:42.131Z,6.10
2019-04-07T04:53:10.808Z,5.77
2019-04-07T04:55:39.299Z,5.90
2019-04-07T04:58:08.770Z,5.83
2019-04-07T05:00:38.456Z,6.20
2019-04-07T05:03:07.197Z,6.33
2019-04-07T05:05:35.789Z,6.50
2019-04-07T05:08:05.513Z,5.80
2019-04-07T05:10:34.830Z,6.17
2019-04-07T05:13:03.268Z,5.83
2019-04-07T05:15:32.559Z,6.17
2019-04-07T05:18:01.648Z,5.93
2019-04-07T05:20:30.181Z,5.87
2019-04-07T05:22:58.670Z,5.77
2019-04-07T05:25:27.412Z,6.10
2019-04-07T05:27:55.894Z,6.20
2019-04-07T05:30:24.248Z,6.00
2019-04-07T05:32:52.634Z,5.97
2019-04-07T05:35:21.027Z,5.93
2019-04-07T05:38:00.170Z,6.10
2019-04-07T05:40:20.116Z,6.40
2019-04-07T05:42:48.503Z,7.40
2019-04-07T05:45:17.290Z,6.47
2019-04-07T05:47:48.720Z,5.87
2019-04-07T05:50:16.693Z,6.42
2019-04-07T05:52:45.087Z,6.23
2019-04-07T05:55:14.243Z,6.00
2019-04-07T05:57:43.157Z,5.90
2019-04-07T06:00:15.598Z,6.47
2019-04-07T06:02:44.100Z,6.23
2019-04-07T06:05:12.478Z,6.00
2019-04-07T06:07:41.567Z,6.23
2019-04-07T06:10:11.209Z,5.57
2019-04-07T06:12:43.263Z,5.80
2019-04-07T06:15:09.857Z,5.77
2019-04-07T06:17:38.921Z,5.87
2019-04-07T06:20:12.118Z,5.93
2019-04-07T06:22:38.110Z,5.90
2019-04-07T06:25:07.307Z,6.40
2019-04-07T06:27:35.861Z,6.10
2019-04-07T06:30:08.343Z,6.03
2019-04-07T06:32:38.389Z,6.50
2019-04-07T06:35:07.666Z,6.70
2019-04-07T06:37:36.315Z,6.57
2019-04-07T06:40:06.446Z,6.53
2019-04-07T06:42:35.452Z,6.27
2019-04-07T06:45:06.794Z,6.80
2019-04-07T06:47:46.224Z,6.80
2019-04-07T06:50:16.877Z,6.63
2019-04-07T06:52:49.667Z,6.10
2019-04-07T06:55:20.107Z,6.50
2019-04-07T06:58:08.303Z,5.90
2019-04-07T07:00:41.199Z,6.93
2019-04-07T07:03:11.615Z,5.87
2019-04-07T07:05:45.352Z,6.03
2019-04-07T07:08:21.060Z,5.97
2019-04-07T07:10:53.262Z,6.07
2019-04-07T07:13:36.815Z,5.30
2019-04-07T07:16:10.138Z,6.03
2019-04-07T07:18:41.345Z,6.17
2019-04-07T07:21:26.073Z,6.40
2019-04-07T07:23:54.449Z,6.10
2019-04-07T07:26:23.412Z,6.10
2019-04-07T07:28:52.117Z,5.97
2019-04-07T07:31:25.260Z,6.60
2019-04-07T07:33:50.655Z,6.53
2019-04-07T07:36:21.518Z,6.08
2019-04-07T07:38:57.586Z,6.27
2019-04-07T07:41:22.202Z,5.80
2019-04-07T07:43:49.337Z,5.70
2019-04-07T07:46:20.535Z,5.70
2019-04-07T07:48:47.834Z,5.83
2019-04-07T07:51:16.458Z,5.40
2019-04-07T07:53:44.986Z,5.60
2019-04-07T07:56:14.267Z,5.93
2019-04-07T07:58:42.684Z,6.50
2019-04-07T08:01:13.541Z,5.53
2019-04-07T08:03:41.450Z,5.13
2019-04-07T08:06:09.805Z,5.17
2019-04-07T08:08:38.191Z,4.57
2019-04-07T08:11:06.788Z,4.80
2019-04-07T08:13:42.125Z,4.00
2019-04-07T08:16:06.331Z,3.37
2019-04-07T08:18:37.126Z,3.90
2019-04-07T08:21:05.556Z,3.30
2019-04-07T08:23:34.139Z,3.43
2019-04-07T08:26:02.801Z,3.40
2019-04-07T08:28:33.680Z,3.10
2019-04-07T08:31:01.894Z,3.40
2019-04-07T08:33:30.438Z,2.97
2019-04-07T08:35:58.940Z,3.30
2019-04-07T08:38:28.335Z,3.30
2019-04-07T08:40:57.537Z,2.97
2019-04-07T08:43:26.489Z,2.90
2019-04-07T08:45:55.366Z,2.47
2019-04-07T08:48:23.866Z,2.30
2019-04-07T08:50:52.848Z,3.17
2019-04-07T08:53:21.693Z,2.70
2019-04-07T08:55:54.387Z,2.70
2019-04-07T08:58:25.843Z,3.00
2019-04-07T09:00:53.809Z,2.90
2019-04-07T09:03:22.065Z,2.87
2019-04-07T09:05:51.355Z,3.30
2019-04-07T09:08:20.421Z,3.30
2019-04-07T09:10:53.838Z,3.87
2019-04-07T09:13:22.469Z,3.60
2019-04-07T09:15:55.631Z,3.90
2019-04-07T09:18:51.633Z,3.93
2019-04-07T09:21:38.673Z,4.07
2019-04-07T09:24:05.030Z,4.13
2019-04-07T09:26:35.511Z,4.30
2019-04-07T09:29:11.649Z,5.00
2019-04-07T09:31:41.626Z,4.47
2019-04-07T09:34:18.217Z,3.63
2019-04-07T09:36:52.108Z,4.00
2019-04-07T09:39:24.777Z,4.07
2019-04-07T09:42:00.955Z,4.30
2019-04-07T09:44:36.011Z,4.10
2019-04-07T09:47:07.842Z,4.03
2019-04-07T09:49:46.172Z,4.33
2019-04-07T09:52:22.131Z,3.83
2019-04-07T09:54:57.557Z,3.97
2019-04-07T09:57:27.595Z,3.40
2019-04-07T09:59:57.614Z,4.33
2019-04-07T10:02:35.489Z,4.00
2019-04-07T10:05:24.103Z,3.53
2019-04-07T10:08:07.114Z,3.97
2019-04-07T10:10:43.661Z,3.80
2019-04-07T10:13:25.678Z,3.70
2019-04-07T10:16:12.052Z,3.40
2019-04-07T10:18:58.366Z,4.07
2019-04-07T10:21:44.892Z,3.67
2019-04-07T10:24:31.494Z,3.63
2019-04-07T10:27:01.835Z,4.10
2019-04-07T10:29:31.911Z,4.20
2019-04-07T10:32:16.852Z,3.87
2019-04-07T10:35:02.470Z,3.60
2019-04-07T10:37:36.111Z,3.70
2019-04-07T10:40:20.344Z,4.23
2019-04-07T10:42:51.416Z,3.80
2019-04-07T10:45:24.988Z,3.97
2019-04-07T10:48:07.002Z,4.10
2019-04-07T10:50:45.935Z,4.33
2019-04-07T10:53:33.273Z,4.63
2019-04-07T10:56:09.925Z,4.53
2019-04-07T10:58:56.732Z,4.20
2019-04-07T11:01:33.376Z,4.47
2019-04-07T11:04:12.771Z,4.63
2019-04-07T11:06:43.862Z,4.50
2019-04-07T11:09:14.054Z,4.33
2019-04-07T11:11:46.664Z,4.47
2019-04-07T11:14:16.162Z,5.00
2019-04-07T11:16:49.852Z,4.80
2019-04-07T11:19:38.003Z,4.77
2019-04-07T11:22:14.418Z,4.40
2019-04-07T11:24:53.815Z,4.70
2019-04-07T11:27:27.691Z,4.30
2019-04-07T11:30:00.695Z,4.87
2019-04-07T11:32:37.072Z,4.67
2019-04-07T11:35:14.873Z,5.20
2019-04-07T11:37:45.124Z,4.97
2019-04-07T11:40:22.657Z,5.20
2019-04-07T11:42:53.438Z,4.57
2019-04-07T11:45:23.714Z,5.23
2019-04-07T11:47:54.496Z,4.50
2019-04-07T11:50:34.342Z,5.22
2019-04-07T11:53:07.579Z,4.70
2019-04-07T11:55:44.204Z,4.40
2019-04-07T11:58:19.954Z,4.57
2019-04-07T12:00:47.340Z,5.00
2019-04-07T12:03:24.686Z,5.13
2019-04-07T12:05:52.208Z,5.30
2019-04-07T12:08:35.800Z,5.73
2019-04-07T12:11:19.966Z,5.13
2019-04-07T12:13:49.995Z,5.10
2019-04-07T12:16:28.688Z,5.00
2019-04-07T12:19:04.407Z,4.70
2019-04-07T12:21:38.250Z,5.60
2019-04-07T12:24:09.772Z,5.23
2019-04-07T12:26:52.789Z,5.43
2019-04-07T12:29:37.609Z,6.17
2019-04-07T12:32:14.858Z,5.47
2019-04-07T12:34:47.706Z,5.10
2019-04-07T12:37:17.492Z,5.40
2019-04-07T12:39:51.286Z,5.80
2019-04-07T12:42:27.810Z,5.27
2019-04-07T12:44:58.259Z,5.30
2019-04-07T12:47:45.004Z,5.70
2019-04-07T12:50:17.587Z,5.47
2019-04-07T12:52:50.296Z,5.13
2019-04-07T12:55:22.965Z,5.60
2019-04-07T12:58:02.048Z,5.33
2019-04-07T13:00:56.125Z,5.23
2019-04-07T13:03:19.938Z,5.40
2019-04-07T13:06:09.260Z,5.30
2019-04-07T13:08:49.085Z,5.20
2019-04-07T13:11:38.680Z,5.27
2019-04-07T13:14:23.367Z,4.70
2019-04-07T13:17:08.971Z,4.37
2019-04-07T13:19:51.429Z,4.80
2019-04-07T13:22:34.399Z,5.30
2019-04-07T13:25:09.104Z,4.70
2019-04-07T13:27:41.662Z,5.00
2019-04-07T13:30:18.207Z,4.13
2019-04-07T13:33:04.678Z,4.53
2019-04-07T13:35:37.475Z,5.23
2019-04-07T13:38:26.275Z,4.60
2019-04-07T13:41:03.004Z,4.40
2019-04-07T13:43:39.167Z,4.03
2019-04-07T13:46:24.483Z,4.40
2019-04-07T13:49:00.446Z,4.10
2019-04-07T13:51:30.439Z,4.10
2019-04-07T13:54:01.990Z,4.97
2019-04-07T13:56:49.888Z,4.70
2019-04-07T13:59:19.334Z,4.67
2019-04-07T14:01:52.430Z,4.70
2019-04-07T14:04:39.231Z,4.67
2019-04-07T14:07:17.873Z,4.40
2019-04-07T14:09:46.930Z,4.70
2019-04-07T14:12:25.972Z,4.60
2019-04-07T14:14:56.095Z,4.93
2019-04-07T14:17:32.282Z,4.50
2019-04-07T14:20:19.283Z,4.70
2019-04-07T14:22:55.587Z,4.37
2019-04-07T14:25:44.554Z,4.47
2019-04-07T14:28:23.381Z,4.40
2019-04-07T14:30:56.347Z,4.27
2019-04-07T14:33:39.226Z,4.40
2019-04-07T14:36:09.322Z,4.80
2019-04-07T14:38:48.373Z,4.57
2019-04-07T14:41:24.710Z,4.60
2019-04-07T14:43:57.621Z,4.40
2019-04-07T14:46:30.339Z,4.90
2019-04-07T14:49:06.662Z,4.90
2019-04-07T14:51:54.899Z,4.90
2019-04-07T14:54:28.210Z,4.97
2019-04-07T14:57:15.498Z,4.93
2019-04-07T15:00:01.890Z,4.73
2019-04-07T15:02:30.396Z,5.07
2019-04-07T15:05:03.115Z,4.57
2019-04-07T15:07:40.834Z,4.70
2019-04-07T15:10:11.849Z,4.80
2019-04-07T15:12:57.940Z,4.50
2019-04-07T15:15:26.780Z,4.90
2019-04-07T15:17:55.300Z,4.97
2019-04-07T15:20:23.918Z,5.00
2019-04-07T15:22:52.848Z,5.20
2019-04-07T15:25:21.609Z,4.60
2019-04-07T15:27:49.979Z,5.37
2019-04-07T15:30:18.465Z,4.93
2019-04-07T15:32:46.851Z,4.60
2019-04-07T15:35:16.308Z,4.87
2019-04-07T15:37:44.907Z,5.20
2019-04-07T15:40:14.001Z,5.30
2019-04-07T15:42:45.917Z,5.53
2019-04-07T15:45:13.401Z,5.17
2019-04-07T15:47:42.489Z,5.30
2019-04-07T15:50:11.735Z,5.17
2019-04-07T15:52:43.707Z,5.03
2019-04-07T15:55:11.611Z,5.40
2019-04-07T15:57:40.749Z,5.25
2019-04-07T16:00:10.044Z,5.90
2019-04-07T16:02:42.162Z,5.57
2019-04-07T16:05:09.449Z,5.60
2019-04-07T16:07:37.832Z,5.57
2019-04-07T16:10:08.048Z,5.40
2019-04-07T16:12:45.174Z,6.00
2019-04-07T16:15:08.003Z,5.60
2019-04-07T16:17:37.167Z,5.70
2019-04-07T16:20:19.855Z,5.47
2019-04-07T16:22:44.255Z,6.13
2019-04-07T16:25:11.223Z,5.73
2019-04-07T16:27:39.798Z,6.00
2019-04-07T16:30:13.773Z,6.40
2019-04-07T16:32:41.967Z,5.93
2019-04-07T16:35:15.583Z,6.47
2019-04-07T16:37:40.900Z,6.43
2019-04-07T16:40:11.451Z,6.60
2019-04-07T16:42:39.836Z,7.30
2019-04-07T16:45:12.515Z,6.93
2019-04-07T16:47:38.676Z,7.27
2019-04-07T16:50:07.668Z,7.07
2019-04-07T16:52:36.471Z,7.73
2019-04-07T16:55:08.981Z,8.00
2019-04-07T16:57:37.586Z,8.20
2019-04-07T17:00:15.287Z,8.30
2019-04-07T17:02:43.922Z,8.57
2019-04-07T17:05:12.323Z,8.90
2019-04-07T17:07:45.245Z,8.85
2019-04-07T17:10:13.305Z,8.30
2019-04-07T17:12:43.923Z,8.60
2019-04-07T17:15:12.419Z,8.87
2019-04-07T17:17:40.809Z,9.47
2019-04-07T17:20:10.018Z,9.67
2019-04-07T17:22:38.439Z,9.70
2019-04-07T17:25:09.927Z,10.60
2019-04-07T17:27:40.944Z,10.53
2019-04-07T17:30:11.152Z,10.37
2019-04-07T17:32:40.333Z,10.30
2019-04-07T17:35:12.587Z,10.83
2019-04-07T17:37:40.585Z,10.67
2019-04-07T17:40:17.296Z,11.97
2019-04-07T17:42:48.218Z,11.07
2019-04-07T17:45:33.833Z,10.63
2019-04-07T17:48:16.802Z,10.97
2019-04-07T17:50:50.077Z,11.00
2019-04-07T17:53:23.221Z,11.33
2019-04-07T17:56:08.775Z,11.47
2019-04-07T17:58:39.972Z,11.27
2019-04-07T18:01:20.629Z,11.10
2019-04-07T18:03:47.929Z,12.10
2019-04-07T18:09:07.687Z,11.77
2019-04-07T18:11:33.934Z,11.40
2019-04-07T18:14:06.725Z,12.07
2019-04-07T18:16:53.151Z,11.97
2019-04-07T18:19:39.492Z,12.98
2019-04-07T18:22:21.437Z,12.60
2019-04-07T18:25:05.192Z,12.50
2019-04-07T18:27:36.217Z,12.50
2019-04-07T18:30:14.814Z,12.30
2019-04-07T18:32:59.782Z,11.53
2019-04-07T18:35:32.881Z,11.77
2019-04-07T18:38:17.337Z,12.37
2019-04-07T18:40:48.290Z,12.47
2019-04-07T18:43:24.591Z,12.13
2019-04-07T18:45:55.105Z,12.27
2019-04-07T18:48:40.251Z,12.00
2019-04-07T18:51:27.281Z,12.40
2019-04-07T18:54:05.375Z,12.37
2019-04-07T18:56:41.748Z,13.55
2019-04-07T18:59:20.446Z,13.23
2019-04-07T19:02:13.831Z,12.80
2019-04-07T19:04:50.060Z,13.43
2019-04-07T19:07:20.124Z,13.23
2019-04-07T19:10:10.672Z,14.00
2019-04-07T19:12:39.948Z,13.70
2019-04-07T19:15:21.419Z,12.17
2019-04-07T19:18:06.934Z,13.87
2019-04-07T19:20:51.981Z,13.67
2019-04-07T19:23:37.564Z,13.67
2019-04-07T19:26:18.285Z,13.30
2019-04-07T19:28:48.137Z,12.93
2019-04-07T19:31:21.619Z,13.70
2019-04-07T19:34:10.046Z,13.83
2019-04-07T19:36:42.801Z,13.30
2019-04-07T19:39:12.376Z,14.45
2019-04-07T19:41:54.061Z,13.67
2019-04-07T19:44:35.562Z,14.90
2019-04-07T19:47:01.403Z,13.30
2019-04-07T19:49:47.678Z,13.40
2019-04-07T19:52:39.539Z,13.83
2019-04-07T19:55:10.013Z,14.27
2019-04-07T19:57:45.533Z,13.90
2019-04-07T20:00:28.924Z,13.67
2019-04-07T20:03:11.387Z,14.07
2019-04-07T20:05:42.942Z,13.73
2019-04-07T20:08:16.500Z,14.60
2019-04-07T20:10:54.908Z,14.13
2019-04-07T20:13:26.138Z,14.50
2019-04-07T20:15:59.240Z,14.53
2019-04-07T20:18:38.315Z,14.60
2019-04-07T20:21:16.361Z,15.60
2019-04-07T20:23:45.972Z,14.87
2019-04-07T20:26:22.075Z,15.70
2019-04-07T20:29:02.194Z,14.97
2019-04-07T20:31:42.907Z,14.27
2019-04-07T20:34:16.354Z,15.32
2019-04-07T20:37:02.501Z,15.37
2019-04-07T20:39:35.124Z,14.93
2019-04-07T20:42:11.372Z,14.90
2019-04-07T20:44:57.048Z,14.10
2019-04-07T20:47:33.231Z,14.40
2019-04-07T20:50:19.743Z,15.23
2019-04-07T20:53:09.309Z,14.53
2019-04-07T20:55:30.906Z,14.27
2019-04-07T20:58:13.091Z,15.43
2019-04-07T21:00:36.920Z,14.80
2019-04-07T21:03:19.495Z,15.03
2019-04-07T21:06:00.120Z,15.77
2019-04-07T21:08:31.782Z,15.10
2019-04-07T21:11:10.980Z,15.23
2019-04-07T21:14:00.889Z,15.13
2019-04-07T21:16:41.230Z,16.07
2019-04-07T21:19:11.584Z,16.33
2019-04-07T21:21:54.056Z,15.67
2019-04-07T21:24:27.207Z,15.43
2019-04-07T21:26:59.331Z,17.03
2019-04-07T21:29:31.892Z,16.87
2019-04-07T21:32:09.605Z,15.60
2019-04-07T21:34:52.050Z,16.20
2019-04-07T21:37:28.447Z,16.47
2019-04-07T21:40:05.373Z,15.40
2019-04-07T21:42:32.733Z,17.00
2019-04-07T21:45:11.763Z,16.00
2019-04-07T21:48:00.541Z,15.83
2019-04-07T21:50:31.568Z,16.07
2019-04-07T21:53:04.550Z,16.40
2019-04-07T21:55:34.564Z,15.30
2019-04-07T21:58:10.639Z,15.87
2019-04-07T22:00:53.102Z,16.53
2019-04-07T22:03:26.859Z,16.90
2019-04-07T22:06:00.617Z,16.27
2019-04-07T22:08:30.694Z,16.40
2019-04-07T22:10:59.446Z,15.77
2019-04-07T22:13:28.660Z,15.03
2019-04-07T22:16:00.589Z,16.37
2019-04-07T22:18:27.338Z,16.80
2019-04-07T22:20:57.013Z,16.53
2019-04-07T22:23:25.497Z,15.70
2019-04-07T22:25:54.157Z,16.90
2019-04-07T22:28:22.798Z,16.73
2019-04-07T22:30:53.214Z,15.87
2019-04-07T22:33:25.290Z,16.80
2019-04-07T22:35:51.789Z,15.33
2019-04-07T22:38:23.063Z,16.50
2019-04-07T22:40:50.368Z,14.90
2019-04-07T22:43:19.903Z,15.70
2019-04-07T22:45:58.849Z,15.70
2019-04-07T22:48:22.788Z,15.47
2019-04-07T22:50:49.647Z,14.73
2019-04-07T22:53:22.532Z,14.90
2019-04-07T22:55:48.601Z,14.67
2019-04-07T22:58:18.011Z,13.80
2019-04-07T23:00:46.662Z,14.80
2019-04-07T23:03:15.567Z,14.57
2019-04-07T23:05:44.030Z,14.50
2019-04-07T23:08:12.536Z,14.97
2019-04-07T23:10:40.874Z,14.97
2019-04-07T23:13:09.298Z,15.40
2019-04-07T23:15:43.923Z,15.77
2019-04-07T23:18:07.864Z,15.97
2019-04-07T23:20:36.402Z,15.30
2019-04-07T23:23:04.819Z,15.10
2019-04-07T23:25:33.224Z,15.13
2019-04-07T23:28:02.661Z,14.53
2019-04-07T23:30:31.418Z,15.03
2019-04-07T23:33:00.047Z,14.67
2019-04-07T23:35:28.768Z,16.75
2019-04-07T23:37:57.453Z,15.60
2019-04-07T23:40:25.977Z,15.47
2019-04-07T23:42:55.111Z,14.73
2019-04-07T23:45:23.632Z,15.47
2019-04-07T23:47:52.557Z,14.60
2019-04-07T23:50:21.140Z,14.53
2019-04-07T23:52:49.795Z,15.07
2019-04-07T23:55:18.176Z,15.00
2019-04-07T23:57:46.568Z,14.83
